createdAt,value
2018-11-12T00:04:05.245Z,77.10
2018-11-12T00:06:34.737Z,76.90
2018-11-12T00:09:04.752Z,76.40
2018-11-12T00:11:36.486Z,76.60
2018-11-12T00:14:08.960Z,76.70
2018-11-12T00:19:07.913Z,77.10
2018-11-12T00:21:36.614Z,77.70
2018-11-12T00:24:05.708Z,78.10
2018-11-12T00:26:37.111Z,78.50
2018-11-12T00:29:06.474Z,78.40
2018-11-12T00:31:37.785Z,78.70
2018-11-12T00:34:07.356Z,78.30
2018-11-12T00:36:36.885Z,78.40
2018-11-12T00:39:09.373Z,78.00
2018-11-12T00:41:42.491Z,77.80
2018-11-12T00:44:13.921Z,77.90
2018-11-12T00:58:43.341Z,78.00
2018-11-12T01:01:15.607Z,78.70
2018-11-12T01:06:30.918Z,80.80
2018-11-12T01:14:39.786Z,81.20
2018-11-12T01:17:24.445Z,81.20
2018-11-12T01:19:56.289Z,81.40
2018-11-12T01:22:27.150Z,81.20
2018-11-12T01:25:02.918Z,81.40
2018-11-12T01:30:14.276Z,80.80
2018-11-12T01:32:49.663Z,80.90
2018-11-12T01:37:57.684Z,80.90
2018-11-12T01:40:26.429Z,80.50
2018-11-12T01:42:55.069Z,80.90
2018-11-12T01:47:51.952Z,80.80
2018-11-12T01:50:20.701Z,80.50
2018-11-12T01:52:49.727Z,80.80
2018-11-12T01:57:50.636Z,80.40
2018-11-12T02:03:06.389Z,79.90
2018-11-12T02:08:10.263Z,79.00
2018-11-12T02:10:46.324Z,79.10
2018-11-12T02:13:23.819Z,79.80
2018-11-12T02:15:54.602Z,79.60
2018-11-12T02:18:29.961Z,80.40
2018-11-12T02:21:02.104Z,79.50
2018-11-12T02:23:31.250Z,78.90
2018-11-12T02:26:07.934Z,78.90
2018-11-12T02:31:24.192Z,79.40
2018-11-12T02:33:59.183Z,80.10
2018-11-12T02:36:33.661Z,80.20
2018-11-12T02:39:04.127Z,80.80
2018-11-12T02:41:36.844Z,81.10
2018-11-12T02:44:11.218Z,81.20
2018-11-12T02:46:41.378Z,82.00
2018-11-12T02:49:10.055Z,82.20
2018-11-12T02:51:38.596Z,82.20
2018-11-12T02:54:10.562Z,82.00
2018-11-12T02:56:39.287Z,82.30
2018-11-12T02:59:08.006Z,81.90
2018-11-12T03:01:36.646Z,81.60
2018-11-12T03:04:07.323Z,82.00
2018-11-12T03:06:40.128Z,82.00
2018-11-12T03:09:12.509Z,81.60
2018-11-12T03:11:41.426Z,81.90
2018-11-12T03:14:10.219Z,82.00
2018-11-12T03:16:40.028Z,81.90
2018-11-12T03:19:10.716Z,82.10
2018-11-12T03:21:44.316Z,82.50
2018-11-12T03:24:14.065Z,82.30
2018-11-12T03:26:43.735Z,81.60
2018-11-12T03:29:12.585Z,81.80
2018-11-12T03:31:41.355Z,82.00
2018-11-12T03:34:11.161Z,81.40
2018-11-12T03:36:39.732Z,81.30
2018-11-12T03:41:37.489Z,80.70
2018-11-12T03:44:06.885Z,81.30
2018-11-12T03:46:36.192Z,81.00
2018-11-12T03:49:05.051Z,80.90
2018-11-12T03:51:33.873Z,80.50
2018-11-12T03:54:02.483Z,81.10
2018-11-12T03:58:59.378Z,81.30
2018-11-12T04:01:33.261Z,81.50
2018-11-12T04:06:30.046Z,80.70
2018-11-12T04:08:58.803Z,80.70
2018-11-12T04:13:55.756Z,80.50
2018-11-12T04:21:20.949Z,80.70
2018-11-12T04:23:49.677Z,80.80
2018-11-12T04:28:46.907Z,81.30
2018-11-12T04:31:15.492Z,81.60
2018-11-12T04:33:44.111Z,80.60
2018-11-12T04:36:12.661Z,80.80
2018-11-12T04:38:41.325Z,81.10
2018-11-12T04:41:10.001Z,80.80
2018-11-12T04:43:38.718Z,81.10
2018-11-12T04:46:07.485Z,80.70
2018-11-12T04:48:36.106Z,80.10
2018-11-12T04:51:04.761Z,81.10
2018-11-12T04:53:33.475Z,80.50
2018-11-12T04:56:02.061Z,80.50
2018-11-12T04:58:30.690Z,80.50
2018-11-12T05:00:59.336Z,80.70
2018-11-12T05:03:27.892Z,80.70
2018-11-12T05:05:56.741Z,80.50
2018-11-12T05:08:25.588Z,80.40
2018-11-12T05:10:54.360Z,80.10
2018-11-12T05:13:23.980Z,80.20
2018-11-12T05:15:52.836Z,80.40
2018-11-12T05:18:21.340Z,80.20
2018-11-12T05:20:50.016Z,80.50
2018-11-12T05:23:19.573Z,80.40
2018-11-12T05:25:48.048Z,80.50
2018-11-12T05:28:16.775Z,81.30
2018-11-12T05:30:45.426Z,81.30
2018-11-12T05:33:13.955Z,81.60
2018-11-12T05:35:42.541Z,81.40
2018-11-12T05:38:11.080Z,81.30
2018-11-12T05:40:40.671Z,81.20
2018-11-12T05:43:09.235Z,81.90
2018-11-12T05:45:38.138Z,81.40
2018-11-12T05:48:09.774Z,82.10
2018-11-12T05:50:42.111Z,81.10
2018-11-12T05:53:20.605Z,81.10
2018-11-12T05:55:50.703Z,80.50
2018-11-12T05:58:20.984Z,81.00
2018-11-12T06:03:21.026Z,80.90
2018-11-12T06:08:23.559Z,80.90
2018-11-12T06:10:53.578Z,80.40
2018-11-12T06:13:22.478Z,79.90
2018-11-12T06:15:52.346Z,80.10
2018-11-12T06:18:21.347Z,80.50
2018-11-12T06:23:21.912Z,80.10
2018-11-12T06:28:19.138Z,79.70
2018-11-12T06:30:47.677Z,79.30
2018-11-12T06:33:16.320Z,79.50
2018-11-12T06:35:44.922Z,80.10
2018-11-12T06:40:50.330Z,79.90
2018-11-12T06:43:19.118Z,79.40
2018-11-12T06:45:47.604Z,79.50
2018-11-12T06:48:16.649Z,79.60
2018-11-12T06:50:45.466Z,79.80
2018-11-12T06:53:14.190Z,79.90
2018-11-12T06:55:43.927Z,79.70
2018-11-12T07:00:45.546Z,79.20
2018-11-12T07:03:14.285Z,79.40
2018-11-12T07:05:43.843Z,79.20
2018-11-12T07:08:12.591Z,78.90
2018-11-12T07:10:41.386Z,79.00
2018-11-12T07:13:11.200Z,78.90
2018-11-12T07:15:43.706Z,78.90
2018-11-12T07:18:12.483Z,79.20
2018-11-12T07:20:41.048Z,79.20
2018-11-12T07:23:09.699Z,78.90
2018-11-12T07:25:38.445Z,78.60
2018-11-12T07:28:07.022Z,77.90
2018-11-12T07:30:36.061Z,77.80
2018-11-12T07:33:07.085Z,77.90
2018-11-12T07:35:35.866Z,78.30
2018-11-12T07:38:04.680Z,78.50
2018-11-12T07:40:33.474Z,78.30
2018-11-12T07:45:30.452Z,78.50
2018-11-12T07:47:59.897Z,78.50
2018-11-12T07:50:30.000Z,78.30
2018-11-12T07:52:58.599Z,78.50
2018-11-12T07:55:28.446Z,77.90
2018-11-12T07:57:58.260Z,77.30
2018-11-12T08:00:31.406Z,77.60
2018-11-12T08:03:05.711Z,77.80
2018-11-12T08:05:36.177Z,78.40
2018-11-12T08:08:07.308Z,79.00
2018-11-12T08:10:35.951Z,79.40
2018-11-12T08:13:04.780Z,79.60
2018-11-12T08:15:33.549Z,79.50
2018-11-12T08:18:02.107Z,79.60
2018-11-12T08:20:31.728Z,79.50
2018-11-12T08:25:28.617Z,79.70
2018-11-12T08:27:57.350Z,79.50
2018-11-12T08:30:28.187Z,79.60
2018-11-12T08:32:59.105Z,79.90
2018-11-12T08:35:27.951Z,79.70
2018-11-12T08:37:56.904Z,79.40
2018-11-12T08:40:26.836Z,79.40
2018-11-12T08:42:55.187Z,79.20
2018-11-12T08:47:53.016Z,79.90
2018-11-12T08:50:22.590Z,80.10
2018-11-12T08:52:52.012Z,80.10
2018-11-12T08:55:22.183Z,80.20
2018-11-12T08:57:54.485Z,80.10
2018-11-12T09:00:24.123Z,80.20
2018-11-12T09:02:52.707Z,79.80
2018-11-12T09:05:22.535Z,80.70
2018-11-12T09:07:52.871Z,79.90
2018-11-12T09:10:23.581Z,79.80
2018-11-12T09:12:52.102Z,79.70
2018-11-12T09:15:20.694Z,79.70
2018-11-12T09:20:19.803Z,79.90
2018-11-12T09:25:19.024Z,79.60
2018-11-12T09:27:47.614Z,79.70
2018-11-12T09:30:24.354Z,79.70
2018-11-12T09:32:53.350Z,79.70
2018-11-12T09:35:23.974Z,79.60
2018-11-12T09:40:33.376Z,79.60
2018-11-12T09:43:04.765Z,79.60
2018-11-12T09:45:33.636Z,79.40
2018-11-12T09:48:08.158Z,79.00
2018-11-12T09:50:37.748Z,78.80
2018-11-12T09:53:12.407Z,78.80
2018-11-12T09:55:41.298Z,79.70
2018-11-12T09:58:09.913Z,78.70
2018-11-12T10:03:54.747Z,78.20
2018-11-12T10:06:24.667Z,78.00
2018-11-12T10:09:02.260Z,77.90
2018-11-12T10:11:37.299Z,77.30
2018-11-12T10:14:07.389Z,77.10
2018-11-12T10:16:38.291Z,76.90
2018-11-12T10:19:12.438Z,76.70
2018-11-12T10:21:42.994Z,76.20
2018-11-12T10:24:11.866Z,76.00
2018-11-12T10:26:40.615Z,76.00
2018-11-12T10:29:10.050Z,75.20
2018-11-12T10:31:38.928Z,75.10
2018-11-12T10:34:13.411Z,74.90
2018-11-12T10:39:13.668Z,75.20
2018-11-12T10:41:42.725Z,75.00
2018-11-12T10:44:11.813Z,75.00
2018-11-12T10:46:40.374Z,74.80
2018-11-12T10:49:09.061Z,74.80
2018-11-12T10:51:37.663Z,74.50
2018-11-12T10:54:06.531Z,74.20
2018-11-12T10:56:35.548Z,73.40
2018-11-12T10:59:04.153Z,73.20
2018-11-12T11:01:38.730Z,72.50
2018-11-12T11:04:12.932Z,71.80
2018-11-12T11:06:41.548Z,71.40
2018-11-12T11:09:10.326Z,71.00
2018-11-12T11:11:39.164Z,71.10
2018-11-12T11:14:16.062Z,70.90
2018-11-12T11:16:46.263Z,70.20
2018-11-12T11:19:15.303Z,70.40
2018-11-12T11:21:56.092Z,70.50
2018-11-12T11:24:36.032Z,70.50
2018-11-12T11:27:16.034Z,70.30
2018-11-12T11:29:52.865Z,70.20
2018-11-12T11:35:02.333Z,70.40
2018-11-12T11:40:50.056Z,70.10
2018-11-12T11:43:32.114Z,69.60
2018-11-12T11:46:02.218Z,69.40
2018-11-12T11:48:45.071Z,69.90
2018-11-12T11:51:53.919Z,69.80
2018-11-12T11:58:12.392Z,70.00
2018-11-12T12:14:34.873Z,70.20
2018-11-12T12:17:33.815Z,70.50
2018-11-12T12:20:24.699Z,70.20
2018-11-12T12:22:59.981Z,69.60
2018-11-12T12:29:28.669Z,68.50
2018-11-12T12:31:57.937Z,68.50
2018-11-12T12:45:35.173Z,67.30
2018-11-12T12:50:57.005Z,67.80
2018-11-12T12:53:26.409Z,67.40
2018-11-12T12:55:55.804Z,67.60
2018-11-12T12:58:32.399Z,66.90
2018-11-12T13:10:03.826Z,67.00
2018-11-12T13:13:25.633Z,67.10
2018-11-12T13:33:55.052Z,67.50
2018-11-12T13:36:30.188Z,71.00
2018-11-12T13:50:51.017Z,72.50
2018-11-12T13:53:34.463Z,76.50
2018-11-12T13:56:09.535Z,77.00
2018-11-12T13:58:54.877Z,77.10
2018-11-12T14:15:24.954Z,76.70
2018-11-12T14:18:24.188Z,76.00
2018-11-12T14:21:26.378Z,77.80
2018-11-12T15:02:53.936Z,78.60
2018-11-12T15:08:45.433Z,77.20
2018-11-12T15:11:57.150Z,76.80
2018-11-12T15:17:06.577Z,76.60
2018-11-12T15:19:44.121Z,76.30
2018-11-12T15:22:15.005Z,76.20
2018-11-12T15:29:45.849Z,75.30
2018-11-12T15:32:14.897Z,75.10
2018-11-12T15:34:43.470Z,75.40
2018-11-12T15:37:21.339Z,75.00
2018-11-12T15:39:50.138Z,75.30
2018-11-12T15:42:18.966Z,75.10
2018-11-12T15:44:47.767Z,75.00
2018-11-12T15:47:16.443Z,75.20
2018-11-12T15:49:45.784Z,75.00
2018-11-12T15:52:14.636Z,74.80
2018-11-12T15:54:43.260Z,73.80
2018-11-12T15:59:40.910Z,73.60
2018-11-12T16:02:10.000Z,73.10
2018-11-12T16:04:39.705Z,73.20
2018-11-12T16:07:11.244Z,73.10
2018-11-12T16:09:40.972Z,73.50
2018-11-12T16:12:10.760Z,73.10
2018-11-12T16:17:36.836Z,73.00
2018-11-12T16:20:10.263Z,72.60
2018-11-12T16:22:40.506Z,72.80
2018-11-12T16:25:17.425Z,72.50
2018-11-12T16:27:55.831Z,72.50
2018-11-12T16:32:57.746Z,72.30
2018-11-12T16:35:28.069Z,72.80
2018-11-12T16:37:57.758Z,72.30
2018-11-12T16:40:26.563Z,72.90
2018-11-12T16:42:55.224Z,73.10
2018-11-12T16:45:24.053Z,72.80
2018-11-12T16:47:52.918Z,72.50
2018-11-12T16:50:22.317Z,72.30
2018-11-12T16:52:51.470Z,72.60
2018-11-12T16:55:21.625Z,72.50
2018-11-12T16:57:50.639Z,72.20
2018-11-12T17:00:24.372Z,72.60
2018-11-12T17:05:23.765Z,73.10
2018-11-12T17:07:55.208Z,73.20
2018-11-12T17:10:26.327Z,73.40
2018-11-12T17:12:58.368Z,73.40
2018-11-12T17:15:27.458Z,72.90
2018-11-12T17:18:03.106Z,72.90
2018-11-12T17:20:45.885Z,72.80
2018-11-12T17:26:20.250Z,72.60
2018-11-12T17:28:50.242Z,73.00
2018-11-12T17:31:19.155Z,73.00
2018-11-12T17:36:16.717Z,73.10
2018-11-12T17:38:45.469Z,73.20
2018-11-12T17:41:15.312Z,73.40
2018-11-12T17:43:44.231Z,73.00
2018-11-12T17:46:12.970Z,73.20
2018-11-12T17:48:41.991Z,73.10
2018-11-12T17:51:11.803Z,72.90
2018-11-12T17:53:40.498Z,72.60
2018-11-12T18:01:06.018Z,72.60
2018-11-12T18:03:36.310Z,72.50
2018-11-12T18:06:06.691Z,72.60
2018-11-12T18:08:43.589Z,72.80
2018-11-12T18:14:26.104Z,73.10
2018-11-12T18:16:58.612Z,72.70
2018-11-12T18:19:28.640Z,72.90
2018-11-12T18:21:58.877Z,72.80
2018-11-12T18:24:30.874Z,72.90
2018-11-12T18:27:02.429Z,72.90
2018-11-12T18:29:45.281Z,73.00
2018-11-12T18:40:44.612Z,73.00
2018-11-12T18:43:23.028Z,72.90
2018-11-12T18:46:45.272Z,73.10
2018-11-12T18:49:14.292Z,73.20
2018-11-12T18:57:14.890Z,73.40
2018-11-12T18:59:43.977Z,73.30
2018-11-12T19:02:13.377Z,73.20
2018-11-12T19:07:10.728Z,73.10
2018-11-12T19:11:50.214Z,72.80
2018-11-12T19:14:24.731Z,72.90
2018-11-12T19:16:57.226Z,72.80
2018-11-12T19:19:30.557Z,72.80
2018-11-12T19:22:04.644Z,73.10
2018-11-12T19:24:34.665Z,73.20
2018-11-12T19:32:58.775Z,72.30
2018-11-12T19:35:53.764Z,72.40
2018-11-12T19:41:53.079Z,72.80
2018-11-12T19:44:22.202Z,72.00
2018-11-12T19:46:51.904Z,72.20
2018-11-12T19:49:20.961Z,72.30
2018-11-12T19:51:50.049Z,73.20
2018-11-12T19:57:22.479Z,72.30
2018-11-12T19:59:52.298Z,72.50
2018-11-12T20:02:22.751Z,72.50
2018-11-12T20:07:48.344Z,72.40
2018-11-12T20:10:28.122Z,72.50
2018-11-12T20:12:58.058Z,72.60
2018-11-12T20:15:36.026Z,72.60
2018-11-12T20:18:04.752Z,72.50
2018-11-12T20:20:46.213Z,72.50
2018-11-12T20:23:16.914Z,72.30
2018-11-12T20:25:45.870Z,72.80
2018-11-12T20:28:14.436Z,72.50
2018-11-12T20:30:43.544Z,72.50
2018-11-12T20:33:14.449Z,72.40
2018-11-12T20:35:45.809Z,72.50
2018-11-12T20:38:14.755Z,72.80
2018-11-12T20:40:43.289Z,72.70
2018-11-12T20:43:11.955Z,72.30
2018-11-12T20:45:41.180Z,72.00
2018-11-12T20:54:50.806Z,72.00
2018-11-12T20:57:21.686Z,72.20
2018-11-12T20:59:58.456Z,74.50
2018-11-12T21:02:29.635Z,74.20
2018-11-12T21:04:59.613Z,74.00
2018-11-12T21:07:28.696Z,73.60
2018-11-12T21:09:57.889Z,73.40
2018-11-12T21:12:27.708Z,73.30
2018-11-12T21:15:04.768Z,73.40
2018-11-12T21:20:15.812Z,73.00
2018-11-12T21:22:46.505Z,72.60
2018-11-12T21:25:17.802Z,72.80
2018-11-12T21:27:46.636Z,72.70
2018-11-12T21:30:19.315Z,72.80
2018-11-12T21:32:48.086Z,73.10
2018-11-12T21:37:45.801Z,72.90
2018-11-12T21:40:16.774Z,72.80
2018-11-12T21:42:45.905Z,72.90
2018-11-12T21:45:19.362Z,73.10
2018-11-12T21:47:48.434Z,72.90
2018-11-12T21:50:27.003Z,72.50
2018-11-12T21:52:55.874Z,72.90
2018-11-12T21:55:24.602Z,73.20
2018-11-12T21:57:54.729Z,73.20
2018-11-12T22:00:25.870Z,72.90
2018-11-12T22:02:56.027Z,72.80
2018-11-12T22:05:25.205Z,72.90
2018-11-12T22:07:53.903Z,72.90
2018-11-12T22:10:22.612Z,72.40
2018-11-12T22:15:20.512Z,72.60
2018-11-12T22:17:49.991Z,72.60
2018-11-12T22:20:19.828Z,72.80
2018-11-12T22:22:48.394Z,72.60
2018-11-12T22:25:18.299Z,72.70
2018-11-12T22:27:47.733Z,72.50
2018-11-12T22:30:19.929Z,72.90
2018-11-12T22:32:50.219Z,73.40
2018-11-12T22:35:27.405Z,73.10
2018-11-12T22:37:56.334Z,72.90
2018-11-12T22:40:25.906Z,72.90
2018-11-12T22:43:23.585Z,73.10
2018-11-12T22:48:54.329Z,74.20
2018-11-12T22:51:23.419Z,72.80
2018-11-12T22:53:52.285Z,73.00
2018-11-12T22:56:20.993Z,72.70
2018-11-12T22:58:49.534Z,72.70
2018-11-12T23:01:18.186Z,72.60
2018-11-12T23:03:46.912Z,72.30
2018-11-12T23:06:16.136Z,72.30
2018-11-12T23:08:44.736Z,72.40
2018-11-12T23:11:13.476Z,72.50
2018-11-12T23:13:43.553Z,72.60
2018-11-12T23:16:12.630Z,72.40
2018-11-12T23:18:41.793Z,72.20
2018-11-12T23:21:10.452Z,72.60
2018-11-12T23:23:39.186Z,72.40
2018-11-12T23:26:07.770Z,72.50
2018-11-12T23:28:36.388Z,72.80
2018-11-12T23:31:05.355Z,72.60
2018-11-12T23:33:34.106Z,73.20
2018-11-12T23:36:02.845Z,73.10
2018-11-12T23:38:31.547Z,73.50
2018-11-12T23:41:00.400Z,73.40
2018-11-12T23:43:29.236Z,73.60
2018-11-12T23:45:57.929Z,73.70
2018-11-12T23:48:26.467Z,73.70
2018-11-12T23:50:55.101Z,73.90
2018-11-12T23:53:23.841Z,74.00
2018-11-12T23:55:52.533Z,74.30
2018-11-12T23:58:21.247Z,74.60
